createdAt,value
2024-03-28T00:00:04.114Z,96.23
2024-03-28T00:01:04.887Z,96.59
2024-03-28T00:02:05.644Z,96.85
2024-03-28T00:03:06.397Z,96.90
2024-03-28T00:04:07.141Z,97.16
2024-03-28T00:05:08.012Z,97.37
2024-03-28T00:06:08.718Z,97.37
2024-03-28T00:07:09.522Z,97.27
2024-03-28T00:08:10.230Z,97.37
2024-03-28T00:09:10.984Z,97.37
2024-03-28T00:10:11.786Z,97.47
2024-03-28T00:11:12.520Z,97.41
2024-03-28T00:12:13.299Z,97.41
2024-03-28T00:13:14.095Z,97.41
2024-03-28T00:14:14.865Z,97.52
2024-03-28T00:15:15.615Z,97.92
2024-03-28T00:16:16.396Z,98.13
2024-03-28T00:17:17.167Z,98.24
2024-03-28T00:18:17.895Z,98.24
2024-03-28T00:19:26.760Z,98.33
2024-03-28T00:20:20.299Z,98.33
2024-03-28T00:21:20.045Z,98.24
2024-03-28T00:22:20.829Z,98.19
2024-03-28T00:23:21.620Z,98.08
2024-03-28T00:24:22.326Z,98.19
2024-03-28T00:25:23.084Z,97.99
2024-03-28T00:26:23.828Z,97.88
2024-03-28T00:27:24.601Z,97.88
2024-03-28T00:28:25.348Z,97.92
2024-03-28T00:29:26.168Z,98.03
2024-03-28T00:30:26.891Z,98.03
2024-03-28T00:31:27.637Z,98.24
2024-03-28T00:32:28.432Z,98.33
2024-03-28T00:33:29.147Z,98.54
2024-03-28T00:34:29.919Z,98.75
2024-03-28T00:35:30.664Z,98.96
2024-03-28T00:36:31.412Z,99.26
2024-03-28T00:37:32.154Z,99.37
2024-03-28T00:38:32.912Z,99.47
2024-03-28T00:39:33.696Z,99.47
2024-03-28T00:40:34.616Z,99.67
2024-03-28T00:41:35.322Z,99.67
2024-03-28T00:42:36.067Z,99.57
2024-03-28T00:43:36.821Z,99.67
2024-03-28T00:44:37.595Z,99.57
2024-03-28T00:45:38.354Z,99.47
2024-03-28T00:46:39.098Z,99.67
2024-03-28T00:47:39.857Z,99.57
2024-03-28T00:48:40.598Z,99.57
2024-03-28T00:49:41.406Z,99.67
2024-03-28T00:50:42.144Z,99.77
2024-03-28T00:51:42.891Z,99.77
2024-03-28T00:52:43.676Z,99.82
2024-03-28T00:53:44.452Z,99.93
2024-03-28T00:54:45.241Z,99.99
2024-03-28T00:55:46.007Z,99.99
2024-03-28T00:56:46.752Z,99.99
2024-03-28T00:57:47.504Z,99.99
2024-03-28T00:58:48.261Z,99.99
2024-03-28T00:59:49.031Z,99.99
2024-03-28T01:00:49.799Z,99.99
2024-03-28T01:01:50.533Z,99.99
2024-03-28T01:02:51.299Z,99.99
2024-03-28T01:03:52.043Z,99.99
2024-03-28T01:04:52.807Z,99.99
2024-03-28T01:05:53.551Z,99.99
2024-03-28T01:06:54.320Z,99.99
2024-03-28T01:07:55.090Z,99.99
2024-03-28T01:08:55.852Z,99.99
2024-03-28T01:09:56.618Z,99.99
2024-03-28T01:10:57.389Z,99.99
2024-03-28T01:11:58.157Z,99.99
2024-03-28T01:12:58.946Z,99.99
2024-03-28T01:13:59.725Z,99.99
2024-03-28T01:15:00.434Z,99.99
2024-03-28T01:16:01.189Z,99.99
2024-03-28T01:17:01.965Z,99.99
2024-03-28T01:18:02.725Z,99.99
2024-03-28T01:19:03.501Z,99.99
2024-03-28T01:20:04.325Z,99.99
2024-03-28T01:21:05.032Z,99.99
2024-03-28T01:22:05.779Z,99.99
2024-03-28T01:23:06.534Z,99.99
2024-03-28T01:24:07.319Z,99.99
2024-03-28T01:25:08.162Z,99.99
2024-03-28T01:26:08.919Z,99.99
2024-03-28T01:27:09.680Z,99.99
2024-03-28T01:28:13.747Z,99.99
2024-03-28T01:29:11.154Z,99.99
2024-03-28T01:30:11.913Z,99.99
2024-03-28T01:31:12.666Z,99.99
2024-03-28T01:32:13.436Z,99.99
2024-03-28T01:33:14.197Z,99.99
2024-03-28T01:34:15.017Z,99.99
2024-03-28T01:35:15.752Z,99.99
2024-03-28T01:36:16.510Z,99.99
2024-03-28T01:37:17.276Z,99.99
2024-03-28T01:38:18.080Z,99.99
2024-03-28T01:39:18.855Z,99.99
2024-03-28T01:40:19.565Z,99.99
2024-03-28T01:41:20.366Z,99.99
2024-03-28T01:42:21.091Z,99.99
2024-03-28T01:43:21.845Z,99.99
2024-03-28T01:44:22.647Z,99.99
2024-03-28T01:45:23.379Z,99.99
2024-03-28T01:46:35.688Z,99.99
2024-03-28T01:47:42.048Z,99.99
2024-03-28T01:48:26.446Z,99.99
2024-03-28T01:49:26.234Z,99.99
2024-03-28T01:50:27.006Z,99.99
2024-03-28T01:51:27.760Z,99.99
2024-03-28T01:52:28.516Z,99.99
2024-03-28T01:53:29.283Z,99.99
2024-03-28T01:54:30.078Z,99.99
2024-03-28T01:55:30.819Z,99.99
2024-03-28T01:56:31.592Z,99.99
2024-03-28T01:57:32.327Z,99.99
2024-03-28T01:58:33.072Z,99.99
2024-03-28T01:59:33.848Z,99.99
2024-03-28T02:00:34.617Z,99.99
2024-03-28T02:01:35.360Z,99.99
2024-03-28T02:02:36.123Z,99.99
2024-03-28T02:03:36.876Z,99.99
2024-03-28T02:04:37.656Z,99.99
2024-03-28T02:05:38.475Z,99.99
2024-03-28T02:06:39.202Z,99.99
2024-03-28T02:07:39.968Z,99.99
2024-03-28T02:08:40.714Z,99.99
2024-03-28T02:09:41.496Z,99.99
2024-03-28T02:10:42.257Z,99.99
2024-03-28T02:11:43.115Z,99.99
2024-03-28T02:12:43.807Z,99.99
2024-03-28T02:13:44.565Z,99.99
2024-03-28T02:14:45.333Z,99.99
2024-03-28T02:15:46.307Z,99.99
2024-03-28T02:16:47.071Z,99.99
2024-03-28T02:17:47.826Z,99.99
2024-03-28T02:18:48.581Z,99.99
2024-03-28T02:19:49.350Z,99.99
2024-03-28T02:20:50.117Z,99.99
2024-03-28T02:21:50.837Z,99.99
2024-03-28T02:22:51.604Z,99.99
2024-03-28T02:23:52.359Z,99.99
2024-03-28T02:24:53.134Z,99.99
2024-03-28T02:25:53.911Z,99.99
2024-03-28T02:26:54.682Z,99.99
2024-03-28T02:27:55.435Z,99.99
2024-03-28T02:28:56.203Z,99.99
2024-03-28T02:29:56.976Z,99.99
2024-03-28T02:30:57.756Z,99.99
2024-03-28T02:31:58.519Z,99.99
2024-03-28T02:32:59.284Z,99.99
2024-03-28T02:34:00.039Z,99.99
2024-03-28T02:35:00.801Z,99.99
2024-03-28T02:36:01.553Z,99.99
2024-03-28T02:37:02.309Z,99.99
2024-03-28T02:38:03.082Z,99.99
2024-03-28T02:39:03.819Z,99.99
2024-03-28T02:40:04.576Z,99.99
2024-03-28T02:41:05.349Z,99.99
2024-03-28T02:42:06.108Z,99.99
2024-03-28T02:43:06.850Z,99.99
2024-03-28T02:44:07.609Z,99.99
2024-03-28T02:45:08.367Z,99.99
2024-03-28T02:46:09.165Z,99.99
2024-03-28T02:47:09.913Z,99.99
2024-03-28T02:48:10.682Z,99.99
2024-03-28T02:49:11.423Z,99.99
2024-03-28T02:50:12.172Z,99.99
2024-03-28T02:51:12.940Z,99.99
2024-03-28T02:52:13.712Z,99.99
2024-03-28T02:53:14.476Z,99.99
2024-03-28T02:54:15.216Z,99.99
2024-03-28T02:55:15.970Z,99.99
2024-03-28T02:56:16.734Z,99.99
2024-03-28T02:57:17.491Z,99.99
2024-03-28T02:58:18.232Z,99.99
2024-03-28T02:59:19.006Z,99.99
2024-03-28T03:00:19.734Z,99.99
2024-03-28T03:01:20.559Z,99.99
2024-03-28T03:02:21.298Z,99.99
2024-03-28T03:03:22.081Z,99.99
2024-03-28T03:04:22.831Z,99.99
2024-03-28T03:05:23.583Z,99.99
2024-03-28T03:06:24.341Z,99.99
2024-03-28T03:07:25.103Z,99.99
2024-03-28T03:08:25.842Z,99.99
2024-03-28T03:09:26.591Z,99.99
2024-03-28T03:10:27.366Z,99.99
2024-03-28T03:11:28.150Z,99.99
2024-03-28T03:12:28.909Z,99.99
2024-03-28T03:13:29.658Z,99.99
2024-03-28T03:14:30.406Z,99.99
2024-03-28T03:15:31.157Z,99.99
2024-03-28T03:16:31.951Z,99.99
2024-03-28T03:17:32.698Z,99.99
2024-03-28T03:18:33.470Z,99.99
2024-03-28T03:19:34.199Z,99.99
2024-03-28T03:20:34.967Z,99.99
2024-03-28T03:21:35.741Z,99.99
2024-03-28T03:22:36.535Z,99.99
2024-03-28T03:23:37.272Z,99.99
2024-03-28T03:24:38.020Z,99.99
2024-03-28T03:25:38.787Z,99.99
2024-03-28T03:26:39.546Z,99.99
2024-03-28T03:27:40.316Z,99.99
2024-03-28T03:28:41.070Z,99.99
2024-03-28T03:29:41.857Z,99.99
2024-03-28T03:30:42.606Z,99.99
2024-03-28T03:31:43.353Z,99.99
2024-03-28T03:32:44.105Z,99.99
2024-03-28T03:33:44.853Z,99.99
2024-03-28T03:34:45.657Z,99.99
2024-03-28T03:35:46.386Z,99.99
2024-03-28T03:36:47.154Z,99.99
2024-03-28T03:37:47.899Z,99.99
2024-03-28T03:38:48.655Z,99.99
2024-03-28T03:39:49.429Z,99.99
2024-03-28T03:40:50.177Z,99.99
2024-03-28T03:41:50.927Z,99.99
2024-03-28T03:42:51.699Z,99.99
2024-03-28T03:43:52.429Z,99.99
2024-03-28T03:44:53.175Z,99.99
2024-03-28T03:45:53.962Z,99.99
2024-03-28T03:46:54.691Z,99.99
2024-03-28T03:47:55.451Z,99.99
2024-03-28T03:48:56.182Z,99.99
2024-03-28T03:49:56.956Z,99.99
2024-03-28T03:50:57.715Z,99.99
2024-03-28T03:51:58.474Z,99.99
2024-03-28T03:52:59.238Z,99.99
2024-03-28T03:53:59.990Z,99.99
2024-03-28T03:55:00.759Z,99.99
2024-03-28T03:56:01.536Z,99.99
2024-03-28T03:57:02.279Z,99.99
2024-03-28T03:58:03.181Z,99.99
2024-03-28T03:59:03.882Z,99.99
2024-03-28T04:00:04.695Z,99.99
2024-03-28T04:01:05.463Z,99.99
2024-03-28T04:02:06.186Z,99.99
2024-03-28T04:03:06.944Z,99.99
2024-03-28T04:04:07.680Z,99.99
2024-03-28T04:05:08.458Z,99.99
2024-03-28T04:06:09.204Z,99.99
2024-03-28T04:07:10.072Z,99.99
2024-03-28T04:08:10.827Z,99.99
2024-03-28T04:09:11.586Z,99.99
2024-03-28T04:10:12.387Z,99.99
2024-03-28T04:11:13.109Z,99.99
2024-03-28T04:12:13.870Z,99.99
2024-03-28T04:13:14.631Z,99.99
2024-03-28T04:14:15.378Z,99.99
2024-03-28T04:15:16.167Z,99.99
2024-03-28T04:16:16.971Z,99.99
2024-03-28T04:17:17.790Z,99.99
2024-03-28T04:18:18.529Z,99.99
2024-03-28T04:19:19.319Z,99.99
2024-03-28T04:20:20.038Z,99.99
2024-03-28T04:21:20.804Z,99.99
2024-03-28T04:22:21.645Z,99.99
2024-03-28T04:23:22.358Z,99.99
2024-03-28T04:24:23.103Z,99.99
2024-03-28T04:25:23.894Z,99.99
2024-03-28T04:26:24.649Z,99.99
2024-03-28T04:27:25.395Z,99.99
2024-03-28T04:28:26.169Z,99.99
2024-03-28T04:29:26.907Z,99.99
2024-03-28T04:30:27.660Z,99.99
2024-03-28T04:31:28.484Z,99.99
2024-03-28T04:32:29.247Z,99.99
2024-03-28T04:33:30.033Z,99.99
2024-03-28T04:34:30.770Z,99.99
2024-03-28T04:35:31.535Z,99.99
2024-03-28T04:36:32.291Z,99.99
2024-03-28T04:37:33.040Z,99.99
2024-03-28T04:38:33.828Z,99.99
2024-03-28T04:39:34.596Z,99.99
2024-03-28T04:40:35.349Z,99.99
2024-03-28T04:41:36.104Z,99.99
2024-03-28T04:42:36.859Z,99.99
2024-03-28T04:43:39.301Z,99.99
2024-03-28T04:44:38.209Z,99.99
2024-03-28T04:45:38.969Z,99.99
2024-03-28T04:46:39.712Z,99.99
2024-03-28T04:47:40.489Z,99.99
2024-03-28T04:48:41.230Z,99.99
2024-03-28T04:49:41.995Z,99.99
2024-03-28T04:50:42.745Z,99.99
2024-03-28T04:51:43.521Z,99.99
2024-03-28T04:52:44.282Z,99.99
2024-03-28T04:53:45.011Z,99.99
2024-03-28T04:54:45.756Z,99.99
2024-03-28T04:55:46.509Z,99.99
2024-03-28T04:56:47.292Z,99.99
2024-03-28T04:57:48.030Z,99.99
2024-03-28T04:58:48.802Z,99.99
2024-03-28T04:59:49.569Z,99.99
2024-03-28T05:00:50.307Z,99.99
2024-03-28T05:01:51.138Z,99.99
2024-03-28T05:02:51.869Z,99.99
2024-03-28T05:03:52.653Z,99.99
2024-03-28T05:04:53.411Z,99.99
2024-03-28T05:05:54.181Z,99.99
2024-03-28T05:06:54.927Z,99.99
2024-03-28T05:07:55.676Z,99.99
2024-03-28T05:08:56.453Z,99.99
2024-03-28T05:09:57.209Z,99.99
2024-03-28T05:10:57.965Z,99.99
2024-03-28T05:11:58.718Z,99.99
2024-03-28T05:12:59.475Z,99.99
2024-03-28T05:14:00.252Z,99.99
2024-03-28T05:15:01.027Z,99.99
2024-03-28T05:16:01.771Z,99.99
2024-03-28T05:17:02.518Z,99.99
2024-03-28T05:18:03.312Z,99.99
2024-03-28T05:19:04.037Z,99.99
2024-03-28T05:20:04.795Z,99.99
2024-03-28T05:21:05.546Z,99.99
2024-03-28T05:22:06.296Z,99.99
2024-03-28T05:23:07.045Z,99.99
2024-03-28T05:24:07.840Z,99.99
2024-03-28T05:25:08.610Z,99.99
2024-03-28T05:26:09.326Z,99.99
2024-03-28T05:27:10.091Z,99.99
2024-03-28T05:28:10.830Z,99.99
2024-03-28T05:29:11.629Z,99.99
2024-03-28T05:30:12.412Z,99.99
2024-03-28T05:31:13.132Z,99.99
2024-03-28T05:32:13.922Z,99.99
2024-03-28T05:33:14.655Z,99.99
2024-03-28T05:34:15.438Z,99.99
2024-03-28T05:35:16.214Z,99.99
2024-03-28T05:36:16.943Z,99.99
2024-03-28T05:37:17.697Z,99.99
2024-03-28T05:38:18.469Z,99.99
2024-03-28T05:39:19.240Z,99.99
2024-03-28T05:40:19.992Z,99.99
2024-03-28T05:41:20.741Z,99.99
2024-03-28T05:42:21.493Z,99.99
2024-03-28T05:43:22.292Z,99.99
2024-03-28T05:44:23.030Z,99.99
2024-03-28T05:45:23.760Z,99.99
2024-03-28T05:46:24.531Z,99.99
2024-03-28T05:47:25.282Z,99.99
2024-03-28T05:48:26.022Z,99.99
2024-03-28T05:49:26.807Z,99.99
2024-03-28T05:50:27.561Z,99.99
2024-03-28T05:51:28.305Z,99.99
2024-03-28T05:52:29.086Z,99.99
2024-03-28T05:53:29.851Z,99.99
2024-03-28T05:54:30.581Z,99.99
2024-03-28T05:55:31.340Z,99.99
2024-03-28T05:56:32.088Z,99.99
2024-03-28T05:57:32.852Z,99.99
2024-03-28T05:58:33.599Z,99.99
2024-03-28T05:59:44.423Z,99.99
2024-03-28T06:00:35.151Z,99.99
2024-03-28T06:01:35.960Z,99.99
2024-03-28T06:02:36.786Z,99.99
2024-03-28T06:03:37.526Z,99.99
2024-03-28T06:04:38.319Z,99.99
2024-03-28T06:05:39.043Z,99.99
2024-03-28T06:06:39.781Z,99.99
2024-03-28T06:07:40.553Z,99.99
2024-03-28T06:08:41.317Z,99.99
2024-03-28T06:09:42.054Z,99.99
2024-03-28T06:10:42.831Z,99.99
2024-03-28T06:11:43.565Z,99.99
2024-03-28T06:12:44.347Z,99.99
2024-03-28T06:13:45.116Z,99.99
2024-03-28T06:14:45.884Z,99.99
2024-03-28T06:15:46.670Z,99.99
2024-03-28T06:16:47.426Z,99.99
2024-03-28T06:17:48.247Z,99.99
2024-03-28T06:18:49.018Z,99.99
2024-03-28T06:19:49.735Z,99.99
2024-03-28T06:20:50.482Z,99.99
2024-03-28T06:21:51.245Z,99.99
2024-03-28T06:22:52.024Z,99.99
2024-03-28T06:23:52.783Z,99.99
2024-03-28T06:24:53.588Z,99.99
2024-03-28T06:25:54.346Z,99.99
2024-03-28T06:26:55.085Z,99.99
2024-03-28T06:27:55.868Z,99.99
2024-03-28T06:28:56.646Z,99.99
2024-03-28T06:29:57.407Z,99.99
2024-03-28T06:30:58.190Z,99.99
2024-03-28T06:31:58.923Z,99.99
2024-03-28T06:32:59.715Z,99.99
2024-03-28T06:34:00.506Z,99.99
2024-03-28T06:35:01.243Z,99.99
2024-03-28T06:36:01.999Z,99.99
2024-03-28T06:37:02.761Z,99.99
2024-03-28T06:38:03.547Z,99.99
2024-03-28T06:39:04.444Z,99.71
2024-03-28T06:40:05.155Z,99.09
2024-03-28T06:41:05.889Z,99.30
2024-03-28T06:42:06.643Z,99.05
2024-03-28T06:43:07.391Z,98.94
2024-03-28T06:44:08.172Z,98.99
2024-03-28T06:45:08.950Z,99.05
2024-03-28T06:46:09.697Z,98.88
2024-03-28T06:47:10.438Z,98.68
2024-03-28T06:48:11.195Z,98.63
2024-03-28T06:49:11.960Z,98.27
2024-03-28T06:50:12.722Z,98.47
2024-03-28T06:51:13.484Z,98.53
2024-03-28T06:52:14.243Z,98.53
2024-03-28T06:53:15.008Z,98.63
2024-03-28T06:54:15.810Z,98.53
2024-03-28T06:55:16.557Z,97.81
2024-03-28T06:56:17.314Z,97.91
2024-03-28T06:57:18.075Z,98.22
2024-03-28T06:58:18.837Z,97.50
2024-03-28T06:59:19.635Z,97.30
2024-03-28T07:00:20.383Z,97.71
2024-03-28T07:01:21.143Z,97.91
2024-03-28T07:02:21.906Z,97.81
2024-03-28T07:03:22.650Z,97.56
2024-03-28T07:04:23.445Z,97.30
2024-03-28T07:05:24.194Z,97.56
2024-03-28T07:06:24.946Z,97.66
2024-03-28T07:07:25.754Z,97.31
2024-03-28T07:08:26.499Z,96.12
2024-03-28T07:09:27.270Z,96.02
2024-03-28T07:10:28.061Z,96.18
2024-03-28T07:11:28.808Z,95.46
2024-03-28T07:12:29.580Z,95.36
2024-03-28T07:13:30.339Z,95.15
2024-03-28T07:14:31.086Z,95.36
2024-03-28T07:15:31.851Z,94.95
2024-03-28T07:16:32.587Z,94.95
2024-03-28T07:17:33.330Z,94.95
2024-03-28T07:18:34.177Z,95.31
2024-03-28T07:19:34.913Z,94.18
2024-03-28T07:20:35.720Z,94.39
2024-03-28T07:21:36.528Z,94.08
2024-03-28T07:22:37.250Z,94.39
2024-03-28T07:23:38.024Z,93.36
2024-03-28T07:24:38.803Z,93.05
2024-03-28T07:25:39.588Z,92.74
2024-03-28T07:26:40.375Z,92.85
2024-03-28T07:27:41.128Z,93.67
2024-03-28T07:28:41.877Z,94.14
2024-03-28T07:29:42.655Z,93.21
2024-03-28T07:30:43.428Z,93.07
2024-03-28T07:31:44.196Z,91.99
2024-03-28T07:32:44.951Z,91.72
2024-03-28T07:33:45.700Z,92.03
2024-03-28T07:34:46.470Z,92.95
2024-03-28T07:35:47.231Z,92.44
2024-03-28T07:36:48.009Z,92.91
2024-03-28T07:37:48.724Z,93.17
2024-03-28T07:38:49.473Z,92.04
2024-03-28T07:39:50.216Z,91.27
2024-03-28T07:40:51.023Z,91.78
2024-03-28T07:41:51.792Z,91.33
2024-03-28T07:42:52.660Z,91.53
2024-03-28T07:43:53.439Z,91.74
2024-03-28T07:44:54.172Z,90.50
2024-03-28T07:45:54.995Z,90.71
2024-03-28T07:46:55.745Z,90.85
2024-03-28T07:47:56.487Z,90.71
2024-03-28T07:48:57.254Z,91.27
2024-03-28T07:49:58.002Z,91.47
2024-03-28T07:50:58.773Z,91.78
2024-03-28T07:51:59.539Z,92.46
2024-03-28T07:53:00.285Z,91.63
2024-03-28T07:54:01.049Z,91.84
2024-03-28T07:55:01.814Z,91.84
2024-03-28T07:56:02.599Z,91.22
2024-03-28T07:57:03.364Z,91.28
2024-03-28T07:58:04.168Z,90.16
2024-03-28T07:59:04.913Z,89.84
2024-03-28T08:00:05.647Z,90.40
2024-03-28T08:01:06.448Z,90.81
2024-03-28T08:02:07.247Z,91.80
2024-03-28T08:03:07.978Z,90.30
2024-03-28T08:04:08.724Z,91.18
2024-03-28T08:05:09.473Z,89.84
2024-03-28T08:06:10.255Z,91.08
2024-03-28T08:07:11.009Z,90.97
2024-03-28T08:08:11.833Z,88.92
2024-03-28T08:09:13.413Z,89.03
2024-03-28T08:10:13.209Z,88.88
2024-03-28T08:11:13.954Z,88.27
2024-03-28T08:12:14.720Z,88.47
2024-03-28T08:13:15.471Z,88.43
2024-03-28T08:14:16.209Z,87.92
2024-03-28T08:15:16.984Z,85.91
2024-03-28T08:16:17.737Z,87.10
2024-03-28T08:17:18.495Z,87.77
2024-03-28T08:18:19.227Z,85.99
2024-03-28T08:19:19.995Z,85.14
2024-03-28T08:20:20.742Z,84.17
2024-03-28T08:21:21.486Z,80.90
2024-03-28T08:22:22.233Z,82.91
2024-03-28T08:23:23.001Z,82.73
2024-03-28T08:24:23.783Z,77.42
2024-03-28T08:25:24.544Z,74.55
2024-03-28T08:26:25.290Z,70.48
2024-03-28T08:27:26.054Z,70.78
2024-03-28T08:28:26.823Z,68.01
2024-03-28T08:29:27.589Z,66.12
2024-03-28T08:30:28.841Z,67.14
2024-03-28T08:31:29.124Z,62.56
2024-03-28T08:32:29.906Z,62.14
2024-03-28T08:33:30.632Z,61.83
2024-03-28T08:34:31.403Z,63.12
2024-03-28T08:35:32.145Z,60.93
2024-03-28T08:36:32.900Z,62.38
2024-03-28T08:37:33.666Z,60.50
2024-03-28T08:38:34.427Z,58.92
2024-03-28T08:39:35.189Z,59.61
2024-03-28T08:40:35.950Z,58.04
2024-03-28T08:41:36.720Z,58.17
2024-03-28T08:42:37.455Z,56.07
2024-03-28T08:43:38.218Z,57.82
2024-03-28T08:44:39.014Z,57.94
2024-03-28T08:45:39.755Z,56.40
2024-03-28T08:46:40.497Z,55.36
2024-03-28T08:47:41.262Z,52.64
2024-03-28T08:48:41.991Z,53.96
2024-03-28T08:49:42.756Z,56.17
2024-03-28T08:50:43.516Z,54.05
2024-03-28T08:51:44.259Z,52.37
2024-03-28T08:52:45.014Z,53.32
2024-03-28T08:53:45.759Z,49.48
2024-03-28T08:54:46.540Z,50.65
2024-03-28T08:55:47.275Z,59.11
2024-03-28T08:56:48.042Z,59.17
2024-03-28T08:57:48.787Z,63.82
2024-03-28T08:58:49.535Z,65.23
2024-03-28T08:59:50.276Z,65.39
2024-03-28T09:00:51.021Z,66.49
2024-03-28T09:01:51.775Z,65.70
2024-03-28T09:02:52.571Z,66.38
2024-03-28T09:03:53.309Z,66.50
2024-03-28T09:04:54.083Z,67.96
2024-03-28T09:05:54.831Z,68.61
2024-03-28T09:06:55.590Z,67.66
2024-03-28T09:07:56.368Z,67.05
2024-03-28T09:08:57.136Z,65.14
2024-03-28T09:09:57.889Z,66.60
2024-03-28T09:10:58.631Z,65.68
2024-03-28T09:11:59.380Z,67.01
2024-03-28T09:13:00.166Z,66.30
2024-03-28T09:14:00.896Z,66.39
2024-03-28T09:15:01.660Z,67.52
2024-03-28T09:16:02.409Z,68.33
2024-03-28T09:17:03.158Z,67.21
2024-03-28T09:18:03.961Z,67.01
2024-03-28T09:19:04.702Z,67.41
2024-03-28T09:20:05.454Z,66.91
2024-03-28T09:21:06.225Z,64.59
2024-03-28T09:22:06.973Z,65.10
2024-03-28T09:23:07.744Z,64.39
2024-03-28T09:24:08.508Z,65.45
2024-03-28T09:25:09.260Z,62.51
2024-03-28T09:26:10.004Z,59.46
2024-03-28T09:27:10.792Z,55.73
2024-03-28T09:28:11.533Z,51.76
2024-03-28T09:29:12.281Z,49.79
2024-03-28T09:30:13.025Z,48.03
2024-03-28T09:31:13.781Z,47.00
2024-03-28T09:32:14.544Z,48.94
2024-03-28T09:33:15.316Z,48.92
2024-03-28T09:34:16.055Z,47.74
2024-03-28T09:35:16.794Z,51.07
2024-03-28T09:36:21.554Z,52.48
2024-03-28T09:37:18.054Z,54.36
2024-03-28T09:38:18.848Z,55.93
2024-03-28T09:39:19.639Z,56.52
2024-03-28T09:40:20.395Z,58.17
2024-03-28T09:41:21.170Z,59.64
2024-03-28T09:42:21.916Z,60.41
2024-03-28T09:43:22.668Z,61.97
2024-03-28T09:44:23.440Z,61.41
2024-03-28T09:45:24.198Z,62.56
2024-03-28T09:46:24.935Z,64.50
2024-03-28T09:47:25.738Z,64.84
2024-03-28T09:48:26.494Z,64.29
2024-03-28T09:49:27.239Z,66.06
2024-03-28T09:50:28.000Z,65.75
2024-03-28T09:51:28.787Z,64.97
2024-03-28T09:52:29.551Z,64.79
2024-03-28T09:53:30.264Z,65.10
2024-03-28T09:54:31.035Z,65.74
2024-03-28T09:55:31.791Z,66.36
2024-03-28T09:56:32.544Z,65.84
2024-03-28T09:57:33.302Z,66.90
2024-03-28T09:58:34.074Z,67.10
2024-03-28T09:59:34.818Z,68.12
2024-03-28T10:00:35.589Z,67.13
2024-03-28T10:01:36.348Z,66.83
2024-03-28T10:02:37.090Z,68.26
2024-03-28T10:03:37.849Z,67.85
2024-03-28T10:04:38.598Z,67.85
2024-03-28T10:05:39.361Z,68.60
2024-03-28T10:06:40.132Z,68.29
2024-03-28T10:07:40.877Z,67.88
2024-03-28T10:08:41.636Z,68.01
2024-03-28T10:09:42.404Z,69.14
2024-03-28T10:10:43.172Z,68.42
2024-03-28T10:11:43.908Z,69.14
2024-03-28T10:12:44.672Z,69.24
2024-03-28T10:13:45.413Z,69.96
2024-03-28T10:14:46.198Z,70.09
2024-03-28T10:15:46.952Z,70.20
2024-03-28T10:16:47.708Z,70.29
2024-03-28T10:17:48.463Z,70.26
2024-03-28T10:18:49.238Z,69.07
2024-03-28T10:19:49.980Z,69.17
2024-03-28T10:20:50.741Z,69.51
2024-03-28T10:21:51.495Z,69.41
2024-03-28T10:22:52.261Z,69.82
2024-03-28T10:23:53.141Z,70.64
2024-03-28T10:24:53.969Z,71.66
2024-03-28T10:25:54.787Z,71.66
2024-03-28T10:26:55.488Z,72.69
2024-03-28T10:27:56.308Z,74.32
2024-03-28T10:28:57.028Z,74.77
2024-03-28T10:29:57.856Z,74.70
2024-03-28T10:30:58.576Z,76.85
2024-03-28T10:31:59.366Z,77.71
2024-03-28T10:33:00.157Z,78.05
2024-03-28T10:34:00.873Z,79.49
2024-03-28T10:35:01.697Z,79.63
2024-03-28T10:36:02.458Z,80.35
2024-03-28T10:37:03.245Z,81.51
2024-03-28T10:38:09.102Z,82.33
2024-03-28T10:39:05.697Z,82.99
2024-03-28T10:40:05.455Z,84.12
2024-03-28T10:41:06.256Z,85.08
2024-03-28T10:42:07.020Z,86.72
2024-03-28T10:43:07.845Z,86.87
2024-03-28T10:44:08.637Z,88.31
2024-03-28T10:45:09.488Z,88.76
2024-03-28T10:46:10.201Z,88.14
2024-03-28T10:47:10.961Z,88.76
2024-03-28T10:48:11.729Z,89.52
2024-03-28T10:49:12.543Z,89.52
2024-03-28T10:50:14.328Z,89.73
2024-03-28T10:51:13.813Z,90.66
2024-03-28T10:52:14.573Z,90.03
2024-03-28T10:53:15.333Z,89.97
2024-03-28T10:54:22.212Z,91.00
2024-03-28T10:55:17.779Z,90.59
2024-03-28T10:56:17.521Z,90.49
2024-03-28T10:57:18.301Z,91.00
2024-03-28T10:58:19.033Z,91.11
2024-03-28T10:59:19.789Z,90.49
2024-03-28T11:00:20.565Z,91.93
2024-03-28T11:01:21.333Z,92.55
2024-03-28T11:02:22.067Z,91.00
2024-03-28T11:03:22.824Z,90.59
2024-03-28T11:04:23.589Z,91.68
2024-03-28T11:05:24.366Z,91.21
2024-03-28T11:06:25.121Z,90.80
2024-03-28T11:07:25.882Z,91.21
2024-03-28T11:08:41.400Z,91.15
2024-03-28T11:09:27.636Z,91.21
2024-03-28T11:10:28.446Z,91.42
2024-03-28T11:11:29.185Z,90.64
2024-03-28T11:12:30.018Z,91.15
2024-03-28T11:13:30.813Z,91.83
2024-03-28T11:14:31.582Z,92.55
2024-03-28T11:15:32.339Z,91.62
2024-03-28T11:16:33.080Z,91.52
2024-03-28T11:17:33.845Z,91.83
2024-03-28T11:18:34.690Z,92.03
2024-03-28T11:19:35.456Z,91.31
2024-03-28T11:20:36.201Z,91.62
2024-03-28T11:21:36.972Z,91.83
2024-03-28T11:22:37.768Z,91.62
2024-03-28T11:23:38.489Z,92.34
2024-03-28T11:24:39.233Z,92.65
2024-03-28T11:25:40.608Z,91.42
2024-03-28T11:26:40.976Z,91.72
2024-03-28T11:27:41.739Z,91.83
2024-03-28T11:28:42.527Z,92.55
2024-03-28T11:29:43.249Z,92.65
2024-03-28T11:30:44.053Z,93.23
2024-03-28T11:31:45.767Z,92.82
2024-03-28T11:32:45.635Z,91.47
2024-03-28T11:33:46.375Z,92.10
2024-03-28T11:34:47.124Z,92.61
2024-03-28T11:35:47.881Z,92.34
2024-03-28T11:36:48.632Z,92.96
2024-03-28T11:37:49.400Z,92.14
2024-03-28T11:38:50.147Z,92.86
2024-03-28T11:39:50.920Z,92.34
2024-03-28T11:40:51.656Z,93.16
2024-03-28T11:41:52.429Z,93.27
2024-03-28T11:42:53.188Z,93.27
2024-03-28T11:43:53.982Z,93.48
2024-03-28T11:44:54.782Z,94.05
2024-03-28T11:45:55.519Z,93.95
2024-03-28T11:46:56.275Z,93.95
2024-03-28T11:47:57.035Z,94.36
2024-03-28T11:48:57.807Z,94.36
2024-03-28T11:49:58.568Z,94.46
2024-03-28T11:50:59.351Z,94.67
2024-03-28T11:52:00.067Z,95.49
2024-03-28T11:53:00.913Z,95.90
2024-03-28T11:54:04.733Z,95.28
2024-03-28T11:55:02.281Z,94.05
2024-03-28T11:56:03.022Z,94.77
2024-03-28T11:57:03.778Z,95.49
2024-03-28T11:58:04.571Z,95.18
2024-03-28T11:59:05.299Z,95.33
2024-03-28T12:00:06.077Z,95.43
2024-03-28T12:01:06.816Z,95.74
2024-03-28T12:02:07.576Z,96.77
2024-03-28T12:03:08.336Z,97.39
2024-03-28T12:04:09.117Z,97.08
2024-03-28T12:05:09.934Z,97.69
2024-03-28T12:06:10.647Z,97.75
2024-03-28T12:07:11.398Z,97.24
2024-03-28T12:08:12.152Z,97.08
2024-03-28T12:09:12.894Z,97.80
2024-03-28T12:10:13.684Z,97.44
2024-03-28T12:11:14.452Z,97.96
2024-03-28T12:12:15.201Z,97.86
2024-03-28T12:13:15.957Z,97.75
2024-03-28T12:14:16.713Z,97.34
2024-03-28T12:15:17.496Z,96.62
2024-03-28T12:16:18.262Z,97.03
2024-03-28T12:17:19.019Z,97.24
2024-03-28T12:18:19.741Z,97.96
2024-03-28T12:19:20.481Z,98.37
2024-03-28T12:20:21.270Z,97.71
2024-03-28T12:21:22.012Z,97.24
2024-03-28T12:22:22.765Z,97.55
2024-03-28T12:23:23.544Z,97.34
2024-03-28T12:24:24.294Z,97.14
2024-03-28T12:25:25.061Z,97.24
2024-03-28T12:26:30.928Z,97.50
2024-03-28T12:27:27.473Z,97.40
2024-03-28T12:28:27.226Z,97.71
2024-03-28T12:29:27.991Z,97.50
2024-03-28T12:30:28.736Z,97.81
2024-03-28T12:31:29.550Z,98.02
2024-03-28T12:32:30.315Z,97.09
2024-03-28T12:33:31.052Z,96.99
2024-03-28T12:45:47.986Z,97.09
2024-03-28T12:46:48.862Z,97.09
2024-03-28T12:47:49.274Z,96.21
2024-03-28T12:48:50.139Z,95.80
2024-03-28T12:49:50.884Z,93.43
2024-03-28T12:50:51.676Z,90.39
2024-03-28T12:51:52.413Z,88.95
2024-03-28T12:59:44.365Z,90.67
2024-03-28T13:00:45.043Z,92.22
2024-03-28T13:01:45.972Z,92.43
2024-03-28T13:02:46.750Z,91.50
2024-03-28T13:03:47.582Z,91.97
2024-03-28T13:04:48.339Z,91.77
2024-03-28T13:05:49.093Z,91.93
2024-03-28T13:06:54.644Z,91.52
2024-03-28T13:07:51.525Z,92.24
2024-03-28T13:08:51.281Z,91.38
2024-03-28T13:09:52.051Z,90.86
2024-03-28T13:10:52.817Z,90.86
2024-03-28T13:11:55.140Z,91.27
2024-03-28T13:12:54.505Z,90.81
2024-03-28T13:13:55.278Z,90.00
2024-03-28T13:15:06.720Z,89.75
2024-03-28T13:15:56.985Z,90.12
2024-03-28T13:16:57.752Z,89.29
2024-03-28T13:17:58.514Z,89.40
2024-03-28T13:18:59.251Z,88.74
2024-03-28T13:20:00.017Z,87.65